sensor_id;sensor_type;location;lat;lon;timestamp;temperature;humidity
12520;DHT22;6325;49.540;8.364;2024-02-23T00:02:21;9.30;99.90
12520;DHT22;6325;49.540;8.364;2024-02-23T00:04:48;9.30;99.90
12520;DHT22;6325;49.540;8.364;2024-02-23T00:07:14;9.10;99.90
12520;DHT22;6325;49.540;8.364;2024-02-23T00:09:41;9.10;99.90
12520;DHT22;6325;49.540;8.364;2024-02-23T00:12:08;9.50;99.90
12520;DHT22;6325;49.540;8.364;2024-02-23T00:14:36;9.00;99.90
12520;DHT22;6325;49.540;8.364;2024-02-23T00:17:03;9.20;99.90
12520;DHT22;6325;49.540;8.364;2024-02-23T00:19:30;8.90;99.90
12520;DHT22;6325;49.540;8.364;2024-02-23T00:21:57;9.10;99.90
12520;DHT22;6325;49.540;8.364;2024-02-23T00:24:24;8.30;99.90
12520;DHT22;6325;49.540;8.364;2024-02-23T00:26:51;8.20;99.90
12520;DHT22;6325;49.540;8.364;2024-02-23T00:29:18;8.60;99.90
12520;DHT22;6325;49.540;8.364;2024-02-23T00:31:46;8.90;99.90
12520;DHT22;6325;49.540;8.364;2024-02-23T00:34:13;8.20;99.90
12520;DHT22;6325;49.540;8.364;2024-02-23T00:36:41;8.60;99.90
12520;DHT22;6325;49.540;8.364;2024-02-23T00:39:10;9.20;99.90
12520;DHT22;6325;49.540;8.364;2024-02-23T00:41:36;9.20;99.90
12520;DHT22;6325;49.540;8.364;2024-02-23T00:44:03;8.90;99.90
12520;DHT22;6325;49.540;8.364;2024-02-23T00:46:30;9.00;99.90
12520;DHT22;6325;49.540;8.364;2024-02-23T00:48:58;8.80;99.90
12520;DHT22;6325;49.540;8.364;2024-02-23T00:51:25;9.10;99.90
12520;DHT22;6325;49.540;8.364;2024-02-23T00:53:52;8.80;99.90
12520;DHT22;6325;49.540;8.364;2024-02-23T00:56:19;8.70;99.90
12520;DHT22;6325;49.540;8.364;2024-02-23T00:58:46;8.70;99.90
12520;DHT22;6325;49.540;8.364;2024-02-23T01:01:12;8.70;99.90
12520;DHT22;6325;49.540;8.364;2024-02-23T01:03:39;8.40;99.90
12520;DHT22;6325;49.540;8.364;2024-02-23T01:06:07;8.60;99.90
12520;DHT22;6325;49.540;8.364;2024-02-23T01:08:34;8.60;99.90
12520;DHT22;6325;49.540;8.364;2024-02-23T01:11:02;8.60;99.90
12520;DHT22;6325;49.540;8.364;2024-02-23T01:13:28;8.60;99.90
12520;DHT22;6325;49.540;8.364;2024-02-23T01:15:55;8.50;99.90
12520;DHT22;6325;49.540;8.364;2024-02-23T01:18:22;8.50;99.90
12520;DHT22;6325;49.540;8.364;2024-02-23T01:20:49;8.90;99.90
12520;DHT22;6325;49.540;8.364;2024-02-23T01:23:17;8.60;99.90
12520;DHT22;6325;49.540;8.364;2024-02-23T01:25:43;8.50;99.90
12520;DHT22;6325;49.540;8.364;2024-02-23T01:28:10;8.40;99.90
12520;DHT22;6325;49.540;8.364;2024-02-23T01:30:37;8.80;99.90
12520;DHT22;6325;49.540;8.364;2024-02-23T01:33:04;8.20;99.90
12520;DHT22;6325;49.540;8.364;2024-02-23T01:35:31;8.20;99.90
12520;DHT22;6325;49.540;8.364;2024-02-23T01:37:58;8.20;99.90
12520;DHT22;6325;49.540;8.364;2024-02-23T01:40:26;7.50;99.90
12520;DHT22;6325;49.540;8.364;2024-02-23T01:43:01;7.60;99.90
12520;DHT22;6325;49.540;8.364;2024-02-23T01:45:28;7.60;99.90
12520;DHT22;6325;49.540;8.364;2024-02-23T01:47:55;6.80;99.90
12520;DHT22;6325;49.540;8.364;2024-02-23T01:50:22;6.20;99.90
12520;DHT22;6325;49.540;8.364;2024-02-23T01:52:49;6.50;99.90
12520;DHT22;6325;49.540;8.364;2024-02-23T01:55:18;7.00;99.90
12520;DHT22;6325;49.540;8.364;2024-02-23T01:57:47;6.40;99.90
12520;DHT22;6325;49.540;8.364;2024-02-23T02:00:16;6.80;99.90
12520;DHT22;6325;49.540;8.364;2024-02-23T02:02:43;6.70;99.90
12520;DHT22;6325;49.540;8.364;2024-02-23T02:05:10;6.40;99.90
12520;DHT22;6325;49.540;8.364;2024-02-23T02:07:37;6.80;99.90
12520;DHT22;6325;49.540;8.364;2024-02-23T02:10:06;6.10;99.90
12520;DHT22;6325;49.540;8.364;2024-02-23T02:12:34;6.10;99.90
12520;DHT22;6325;49.540;8.364;2024-02-23T02:15:03;6.80;99.90
12520;DHT22;6325;49.540;8.364;2024-02-23T02:17:31;6.30;99.90
12520;DHT22;6325;49.540;8.364;2024-02-23T02:19:58;6.70;99.90
12520;DHT22;6325;49.540;8.364;2024-02-23T02:22:25;6.50;99.90
12520;DHT22;6325;49.540;8.364;2024-02-23T02:24:52;6.10;99.90
12520;DHT22;6325;49.540;8.364;2024-02-23T02:27:19;5.90;99.90
12520;DHT22;6325;49.540;8.364;2024-02-23T02:29:45;6.00;99.90
12520;DHT22;6325;49.540;8.364;2024-02-23T02:32:14;7.00;99.90
12520;DHT22;6325;49.540;8.364;2024-02-23T02:34:40;6.60;99.90
12520;DHT22;6325;49.540;8.364;2024-02-23T02:37:07;6.10;99.90
12520;DHT22;6325;49.540;8.364;2024-02-23T02:39:34;7.00;99.90
12520;DHT22;6325;49.540;8.364;2024-02-23T02:42:00;7.20;99.90
12520;DHT22;6325;49.540;8.364;2024-02-23T02:44:27;6.70;99.90
12520;DHT22;6325;49.540;8.364;2024-02-23T02:46:56;6.90;99.90
12520;DHT22;6325;49.540;8.364;2024-02-23T02:49:24;7.20;99.90
12520;DHT22;6325;49.540;8.364;2024-02-23T02:51:51;6.90;99.90
12520;DHT22;6325;49.540;8.364;2024-02-23T02:54:17;7.00;99.90
12520;DHT22;6325;49.540;8.364;2024-02-23T02:56:45;6.70;99.90
12520;DHT22;6325;49.540;8.364;2024-02-23T02:59:12;6.10;99.90
12520;DHT22;6325;49.540;8.364;2024-02-23T03:01:39;6.50;99.90
12520;DHT22;6325;49.540;8.364;2024-02-23T03:04:07;6.60;99.90
12520;DHT22;6325;49.540;8.364;2024-02-23T03:06:35;7.20;99.90
12520;DHT22;6325;49.540;8.364;2024-02-23T03:09:02;6.50;99.90
12520;DHT22;6325;49.540;8.364;2024-02-23T03:11:30;6.80;99.90
12520;DHT22;6325;49.540;8.364;2024-02-23T03:13:57;7.40;99.90
12520;DHT22;6325;49.540;8.364;2024-02-23T03:16:24;6.80;99.90
12520;DHT22;6325;49.540;8.364;2024-02-23T03:18:51;6.90;99.90
12520;DHT22;6325;49.540;8.364;2024-02-23T03:21:19;6.70;99.90
12520;DHT22;6325;49.540;8.364;2024-02-23T03:23:47;7.10;99.90
12520;DHT22;6325;49.540;8.364;2024-02-23T03:26:14;7.00;99.90
12520;DHT22;6325;49.540;8.364;2024-02-23T03:28:42;7.30;99.90
12520;DHT22;6325;49.540;8.364;2024-02-23T03:31:09;7.10;99.90
12520;DHT22;6325;49.540;8.364;2024-02-23T03:33:36;6.80;99.90
12520;DHT22;6325;49.540;8.364;2024-02-23T03:36:04;6.70;99.90
12520;DHT22;6325;49.540;8.364;2024-02-23T03:38:33;7.00;99.90
12520;DHT22;6325;49.540;8.364;2024-02-23T03:41:01;7.10;99.90
12520;DHT22;6325;49.540;8.364;2024-02-23T03:43:28;6.60;99.90
12520;DHT22;6325;49.540;8.364;2024-02-23T03:45:55;7.10;99.90
12520;DHT22;6325;49.540;8.364;2024-02-23T03:48:21;7.20;99.90
12520;DHT22;6325;49.540;8.364;2024-02-23T03:50:48;7.10;99.90
12520;DHT22;6325;49.540;8.364;2024-02-23T03:53:15;6.70;99.90
12520;DHT22;6325;49.540;8.364;2024-02-23T03:55:42;6.80;99.90
12520;DHT22;6325;49.540;8.364;2024-02-23T03:58:10;6.80;99.90
12520;DHT22;6325;49.540;8.364;2024-02-23T04:00:36;6.90;99.90
12520;DHT22;6325;49.540;8.364;2024-02-23T04:03:03;6.60;99.90
12520;DHT22;6325;49.540;8.364;2024-02-23T04:05:33;6.10;99.90
12520;DHT22;6325;49.540;8.364;2024-02-23T04:08:00;6.20;99.90
12520;DHT22;6325;49.540;8.364;2024-02-23T04:10:27;6.60;99.90
12520;DHT22;6325;49.540;8.364;2024-02-23T04:12:53;6.00;99.90
12520;DHT22;6325;49.540;8.364;2024-02-23T04:15:22;6.80;99.90
12520;DHT22;6325;49.540;8.364;2024-02-23T04:17:49;6.60;99.90
12520;DHT22;6325;49.540;8.364;2024-02-23T04:20:15;6.40;99.90
12520;DHT22;6325;49.540;8.364;2024-02-23T04:22:42;6.40;99.90
12520;DHT22;6325;49.540;8.364;2024-02-23T04:25:09;6.00;99.90
12520;DHT22;6325;49.540;8.364;2024-02-23T04:27:36;5.90;99.90
12520;DHT22;6325;49.540;8.364;2024-02-23T04:30:03;6.80;99.90
12520;DHT22;6325;49.540;8.364;2024-02-23T04:32:31;6.90;99.90
12520;DHT22;6325;49.540;8.364;2024-02-23T04:34:58;5.70;99.90
12520;DHT22;6325;49.540;8.364;2024-02-23T04:37:25;6.20;99.90
12520;DHT22;6325;49.540;8.364;2024-02-23T04:39:51;6.30;99.90
12520;DHT22;6325;49.540;8.364;2024-02-23T04:42:18;6.70;99.90
12520;DHT22;6325;49.540;8.364;2024-02-23T04:44:45;6.00;99.90
12520;DHT22;6325;49.540;8.364;2024-02-23T04:47:12;6.30;99.90
12520;DHT22;6325;49.540;8.364;2024-02-23T04:49:40;6.80;99.90
12520;DHT22;6325;49.540;8.364;2024-02-23T04:52:12;6.30;99.90
12520;DHT22;6325;49.540;8.364;2024-02-23T04:54:39;6.30;99.90
12520;DHT22;6325;49.540;8.364;2024-02-23T04:57:05;6.80;99.90
12520;DHT22;6325;49.540;8.364;2024-02-23T04:59:32;6.40;99.90
12520;DHT22;6325;49.540;8.364;2024-02-23T05:01:59;6.10;99.90
12520;DHT22;6325;49.540;8.364;2024-02-23T05:04:26;6.00;99.90
12520;DHT22;6325;49.540;8.364;2024-02-23T05:06:55;6.80;99.90
12520;DHT22;6325;49.540;8.364;2024-02-23T05:09:21;6.80;99.90
12520;DHT22;6325;49.540;8.364;2024-02-23T05:11:48;6.50;99.90
12520;DHT22;6325;49.540;8.364;2024-02-23T05:14:15;6.90;99.90
12520;DHT22;6325;49.540;8.364;2024-02-23T05:16:42;6.90;99.90
12520;DHT22;6325;49.540;8.364;2024-02-23T05:19:08;6.90;99.90
12520;DHT22;6325;49.540;8.364;2024-02-23T05:21:35;6.00;99.90
12520;DHT22;6325;49.540;8.364;2024-02-23T05:24:04;5.90;99.90
12520;DHT22;6325;49.540;8.364;2024-02-23T05:26:31;6.00;99.90
12520;DHT22;6325;49.540;8.364;2024-02-23T05:28:58;6.30;99.90
12520;DHT22;6325;49.540;8.364;2024-02-23T05:31:44;6.80;99.90
12520;DHT22;6325;49.540;8.364;2024-02-23T05:34:11;6.70;99.90
12520;DHT22;6325;49.540;8.364;2024-02-23T05:36:38;6.50;99.90
12520;DHT22;6325;49.540;8.364;2024-02-23T05:39:06;7.20;99.90
12520;DHT22;6325;49.540;8.364;2024-02-23T05:41:35;6.90;99.90
12520;DHT22;6325;49.540;8.364;2024-02-23T05:44:02;7.00;99.90
12520;DHT22;6325;49.540;8.364;2024-02-23T05:46:31;7.00;99.90
12520;DHT22;6325;49.540;8.364;2024-02-23T05:48:58;7.00;99.90
12520;DHT22;6325;49.540;8.364;2024-02-23T05:51:24;7.10;99.90
12520;DHT22;6325;49.540;8.364;2024-02-23T05:53:53;6.90;99.90
12520;DHT22;6325;49.540;8.364;2024-02-23T05:56:21;7.10;99.90
12520;DHT22;6325;49.540;8.364;2024-02-23T05:58:49;7.50;99.90
12520;DHT22;6325;49.540;8.364;2024-02-23T06:01:16;7.40;99.90
12520;DHT22;6325;49.540;8.364;2024-02-23T06:03:41;7.30;99.90
12520;DHT22;6325;49.540;8.364;2024-02-23T06:06:08;7.60;99.90
12520;DHT22;6325;49.540;8.364;2024-02-23T06:08:36;7.20;99.90
12520;DHT22;6325;49.540;8.364;2024-02-23T06:11:03;7.50;99.90
12520;DHT22;6325;49.540;8.364;2024-02-23T06:13:31;7.00;99.90
12520;DHT22;6325;49.540;8.364;2024-02-23T06:15:58;7.00;99.90
12520;DHT22;6325;49.540;8.364;2024-02-23T06:18:25;7.10;99.90
12520;DHT22;6325;49.540;8.364;2024-02-23T06:20:52;7.30;99.90
12520;DHT22;6325;49.540;8.364;2024-02-23T06:23:19;7.20;99.90
12520;DHT22;6325;49.540;8.364;2024-02-23T06:25:47;7.40;99.90
12520;DHT22;6325;49.540;8.364;2024-02-23T06:28:14;6.70;99.90
12520;DHT22;6325;49.540;8.364;2024-02-23T06:30:42;7.50;99.90
12520;DHT22;6325;49.540;8.364;2024-02-23T06:33:09;6.80;99.90
12520;DHT22;6325;49.540;8.364;2024-02-23T06:35:36;6.90;99.90
12520;DHT22;6325;49.540;8.364;2024-02-23T06:38:02;7.20;99.90
12520;DHT22;6325;49.540;8.364;2024-02-23T06:40:31;7.60;99.90
12520;DHT22;6325;49.540;8.364;2024-02-23T06:42:57;7.00;99.90
12520;DHT22;6325;49.540;8.364;2024-02-23T06:45:25;7.00;99.90
12520;DHT22;6325;49.540;8.364;2024-02-23T06:47:53;7.20;99.90
12520;DHT22;6325;49.540;8.364;2024-02-23T06:50:20;6.40;99.90
12520;DHT22;6325;49.540;8.364;2024-02-23T06:52:48;7.30;99.90
12520;DHT22;6325;49.540;8.364;2024-02-23T06:55:15;7.10;99.90
12520;DHT22;6325;49.540;8.364;2024-02-23T06:57:43;7.30;99.90
12520;DHT22;6325;49.540;8.364;2024-02-23T07:00:10;7.60;99.90
12520;DHT22;6325;49.540;8.364;2024-02-23T07:02:37;7.10;99.90
12520;DHT22;6325;49.540;8.364;2024-02-23T07:05:06;6.90;99.90
12520;DHT22;6325;49.540;8.364;2024-02-23T07:07:34;7.40;99.90
12520;DHT22;6325;49.540;8.364;2024-02-23T07:10:01;6.40;99.90
12520;DHT22;6325;49.540;8.364;2024-02-23T07:12:28;6.70;99.90
12520;DHT22;6325;49.540;8.364;2024-02-23T07:14:55;7.00;99.90
12520;DHT22;6325;49.540;8.364;2024-02-23T07:17:22;6.80;99.90
12520;DHT22;6325;49.540;8.364;2024-02-23T07:19:49;7.30;99.90
12520;DHT22;6325;49.540;8.364;2024-02-23T07:22:17;7.60;99.90
12520;DHT22;6325;49.540;8.364;2024-02-23T07:24:46;6.90;99.90
12520;DHT22;6325;49.540;8.364;2024-02-23T07:27:13;7.00;99.90
12520;DHT22;6325;49.540;8.364;2024-02-23T07:29:39;7.60;99.90
12520;DHT22;6325;49.540;8.364;2024-02-23T07:32:06;6.90;99.90
12520;DHT22;6325;49.540;8.364;2024-02-23T07:34:33;7.00;99.90
12520;DHT22;6325;49.540;8.364;2024-02-23T07:37:00;6.50;99.90
12520;DHT22;6325;49.540;8.364;2024-02-23T07:39:29;7.30;99.90
12520;DHT22;6325;49.540;8.364;2024-02-23T07:41:56;7.10;99.90
12520;DHT22;6325;49.540;8.364;2024-02-23T07:44:23;7.30;99.90
12520;DHT22;6325;49.540;8.364;2024-02-23T07:46:50;7.20;99.90
12520;DHT22;6325;49.540;8.364;2024-02-23T07:49:17;7.00;99.90
12520;DHT22;6325;49.540;8.364;2024-02-23T07:51:45;7.30;99.90
12520;DHT22;6325;49.540;8.364;2024-02-23T07:54:11;7.30;99.90
12520;DHT22;6325;49.540;8.364;2024-02-23T07:56:39;7.30;99.90
12520;DHT22;6325;49.540;8.364;2024-02-23T07:59:06;7.80;99.90
12520;DHT22;6325;49.540;8.364;2024-02-23T08:01:33;7.90;99.90
12520;DHT22;6325;49.540;8.364;2024-02-23T08:04:00;7.40;99.90
12520;DHT22;6325;49.540;8.364;2024-02-23T08:06:26;7.40;99.90
12520;DHT22;6325;49.540;8.364;2024-02-23T08:08:53;7.30;99.90
12520;DHT22;6325;49.540;8.364;2024-02-23T08:11:20;7.60;99.90
12520;DHT22;6325;49.540;8.364;2024-02-23T08:13:48;7.40;99.90
12520;DHT22;6325;49.540;8.364;2024-02-23T08:16:16;7.40;99.90
12520;DHT22;6325;49.540;8.364;2024-02-23T08:18:43;7.30;99.90
12520;DHT22;6325;49.540;8.364;2024-02-23T08:21:10;7.70;99.90
12520;DHT22;6325;49.540;8.364;2024-02-23T08:23:36;7.70;99.90
12520;DHT22;6325;49.540;8.364;2024-02-23T08:26:03;7.70;99.90
12520;DHT22;6325;49.540;8.364;2024-02-23T08:28:30;7.80;99.90
12520;DHT22;6325;49.540;8.364;2024-02-23T08:30:58;8.30;99.90
12520;DHT22;6325;49.540;8.364;2024-02-23T08:33:25;8.30;99.90
12520;DHT22;6325;49.540;8.364;2024-02-23T08:35:52;8.00;99.90
12520;DHT22;6325;49.540;8.364;2024-02-23T08:38:18;8.00;99.90
12520;DHT22;6325;49.540;8.364;2024-02-23T08:40:45;8.10;99.90
12520;DHT22;6325;49.540;8.364;2024-02-23T08:43:13;8.20;99.90
12520;DHT22;6325;49.540;8.364;2024-02-23T08:45:40;7.40;99.90
12520;DHT22;6325;49.540;8.364;2024-02-23T08:48:08;7.40;99.90
12520;DHT22;6325;49.540;8.364;2024-02-23T08:50:35;8.50;99.90
12520;DHT22;6325;49.540;8.364;2024-02-23T08:53:04;7.60;99.90
12520;DHT22;6325;49.540;8.364;2024-02-23T08:55:30;8.40;99.90
12520;DHT22;6325;49.540;8.364;2024-02-23T08:57:58;8.10;99.90
12520;DHT22;6325;49.540;8.364;2024-02-23T09:00:25;8.80;99.90
12520;DHT22;6325;49.540;8.364;2024-02-23T09:02:52;7.60;99.90
12520;DHT22;6325;49.540;8.364;2024-02-23T09:05:20;8.20;99.90
12520;DHT22;6325;49.540;8.364;2024-02-23T09:07:47;8.30;99.90
12520;DHT22;6325;49.540;8.364;2024-02-23T09:10:14;8.40;99.90
12520;DHT22;6325;49.540;8.364;2024-02-23T09:12:41;8.50;99.90
12520;DHT22;6325;49.540;8.364;2024-02-23T09:15:08;9.20;99.90
12520;DHT22;6325;49.540;8.364;2024-02-23T09:17:35;8.50;99.90
12520;DHT22;6325;49.540;8.364;2024-02-23T09:20:02;9.00;99.90
12520;DHT22;6325;49.540;8.364;2024-02-23T09:22:30;8.60;99.90
12520;DHT22;6325;49.540;8.364;2024-02-23T09:24:57;8.70;99.90
12520;DHT22;6325;49.540;8.364;2024-02-23T09:27:24;8.70;99.90
12520;DHT22;6325;49.540;8.364;2024-02-23T09:29:50;9.30;99.90
12520;DHT22;6325;49.540;8.364;2024-02-23T09:32:17;9.50;99.90
12520;DHT22;6325;49.540;8.364;2024-02-23T09:34:50;9.80;99.90
12520;DHT22;6325;49.540;8.364;2024-02-23T09:37:16;9.60;99.90
12520;DHT22;6325;49.540;8.364;2024-02-23T09:39:45;8.90;99.90
12520;DHT22;6325;49.540;8.364;2024-02-23T09:42:11;9.90;99.90
12520;DHT22;6325;49.540;8.364;2024-02-23T09:44:39;9.50;99.90
12520;DHT22;6325;49.540;8.364;2024-02-23T09:47:08;10.10;99.90
12520;DHT22;6325;49.540;8.364;2024-02-23T09:49:38;9.30;99.90
12520;DHT22;6325;49.540;8.364;2024-02-23T09:52:07;9.90;99.90
12520;DHT22;6325;49.540;8.364;2024-02-23T09:54:34;9.20;99.90
12520;DHT22;6325;49.540;8.364;2024-02-23T09:57:06;8.80;99.90
12520;DHT22;6325;49.540;8.364;2024-02-23T09:59:34;9.80;99.90
12520;DHT22;6325;49.540;8.364;2024-02-23T10:02:01;8.90;99.90
12520;DHT22;6325;49.540;8.364;2024-02-23T10:04:29;9.30;99.90
12520;DHT22;6325;49.540;8.364;2024-02-23T10:06:56;9.80;99.90
12520;DHT22;6325;49.540;8.364;2024-02-23T10:09:23;10.00;99.90
12520;DHT22;6325;49.540;8.364;2024-02-23T10:11:52;9.50;99.90
12520;DHT22;6325;49.540;8.364;2024-02-23T10:14:20;10.10;99.90
12520;DHT22;6325;49.540;8.364;2024-02-23T10:16:47;9.60;99.90
12520;DHT22;6325;49.540;8.364;2024-02-23T10:19:13;10.00;99.90
12520;DHT22;6325;49.540;8.364;2024-02-23T10:21:40;10.20;99.90
12520;DHT22;6325;49.540;8.364;2024-02-23T10:24:07;10.40;99.90
12520;DHT22;6325;49.540;8.364;2024-02-23T10:26:34;9.80;99.90
12520;DHT22;6325;49.540;8.364;2024-02-23T10:29:00;9.50;99.90
12520;DHT22;6325;49.540;8.364;2024-02-23T10:31:31;9.60;99.90
12520;DHT22;6325;49.540;8.364;2024-02-23T10:34:03;9.90;99.90
12520;DHT22;6325;49.540;8.364;2024-02-23T10:36:36;10.30;99.90
12520;DHT22;6325;49.540;8.364;2024-02-23T10:39:06;9.90;99.90
12520;DHT22;6325;49.540;8.364;2024-02-23T10:41:35;10.40;99.90
12520;DHT22;6325;49.540;8.364;2024-02-23T10:44:03;9.20;99.90
12520;DHT22;6325;49.540;8.364;2024-02-23T10:46:32;10.50;99.90
12520;DHT22;6325;49.540;8.364;2024-02-23T10:49:01;9.90;99.90
12520;DHT22;6325;49.540;8.364;2024-02-23T10:51:31;10.10;99.90
12520;DHT22;6325;49.540;8.364;2024-02-23T10:53:59;10.30;99.90
12520;DHT22;6325;49.540;8.364;2024-02-23T10:56:26;10.20;99.90
12520;DHT22;6325;49.540;8.364;2024-02-23T10:58:54;9.90;99.90
12520;DHT22;6325;49.540;8.364;2024-02-23T11:01:21;10.00;99.90
12520;DHT22;6325;49.540;8.364;2024-02-23T11:03:51;10.00;99.90
12520;DHT22;6325;49.540;8.364;2024-02-23T11:06:19;9.50;99.90
12520;DHT22;6325;49.540;8.364;2024-02-23T11:08:47;10.00;99.90
12520;DHT22;6325;49.540;8.364;2024-02-23T11:11:16;10.60;99.90
12520;DHT22;6325;49.540;8.364;2024-02-23T11:13:44;10.10;99.90
12520;DHT22;6325;49.540;8.364;2024-02-23T11:16:11;9.80;99.90
12520;DHT22;6325;49.540;8.364;2024-02-23T11:18:39;9.90;99.90
12520;DHT22;6325;49.540;8.364;2024-02-23T11:21:10;10.40;99.90
12520;DHT22;6325;49.540;8.364;2024-02-23T11:23:44;10.10;99.90
12520;DHT22;6325;49.540;8.364;2024-02-23T11:26:12;10.40;99.90
12520;DHT22;6325;49.540;8.364;2024-02-23T11:28:43;10.80;99.90
12520;DHT22;6325;49.540;8.364;2024-02-23T11:31:13;10.40;99.90
12520;DHT22;6325;49.540;8.364;2024-02-23T11:33:47;11.00;99.90
12520;DHT22;6325;49.540;8.364;2024-02-23T11:36:22;11.10;99.90
12520;DHT22;6325;49.540;8.364;2024-02-23T11:38:53;11.20;99.90
12520;DHT22;6325;49.540;8.364;2024-02-23T11:41:21;10.90;99.90
12520;DHT22;6325;49.540;8.364;2024-02-23T11:43:49;10.60;99.90
12520;DHT22;6325;49.540;8.364;2024-02-23T11:46:16;10.60;99.90
12520;DHT22;6325;49.540;8.364;2024-02-23T11:48:42;10.80;99.90
12520;DHT22;6325;49.540;8.364;2024-02-23T11:51:10;10.10;99.90
12520;DHT22;6325;49.540;8.364;2024-02-23T11:53:38;10.00;99.90
12520;DHT22;6325;49.540;8.364;2024-02-23T11:56:05;10.90;99.90
12520;DHT22;6325;49.540;8.364;2024-02-23T11:58:32;10.10;99.90
12520;DHT22;6325;49.540;8.364;2024-02-23T12:01:00;10.90;99.90
12520;DHT22;6325;49.540;8.364;2024-02-23T12:03:28;10.30;99.90
12520;DHT22;6325;49.540;8.364;2024-02-23T12:05:56;11.10;99.90
12520;DHT22;6325;49.540;8.364;2024-02-23T12:08:24;10.20;99.90
12520;DHT22;6325;49.540;8.364;2024-02-23T12:10:54;9.60;99.90
12520;DHT22;6325;49.540;8.364;2024-02-23T12:13:21;10.20;99.90
12520;DHT22;6325;49.540;8.364;2024-02-23T12:15:48;10.80;99.90
12520;DHT22;6325;49.540;8.364;2024-02-23T12:18:20;10.20;99.90
12520;DHT22;6325;49.540;8.364;2024-02-23T12:20:48;10.20;99.90
12520;DHT22;6325;49.540;8.364;2024-02-23T12:23:15;9.90;99.90
12520;DHT22;6325;49.540;8.364;2024-02-23T12:25:53;10.70;99.90
12520;DHT22;6325;49.540;8.364;2024-02-23T12:28:20;10.60;99.90
12520;DHT22;6325;49.540;8.364;2024-02-23T12:30:58;10.70;99.90
12520;DHT22;6325;49.540;8.364;2024-02-23T12:33:27;10.90;99.90
12520;DHT22;6325;49.540;8.364;2024-02-23T12:35:54;11.10;99.90
12520;DHT22;6325;49.540;8.364;2024-02-23T12:38:21;12.20;99.90
12520;DHT22;6325;49.540;8.364;2024-02-23T12:40:48;12.30;99.90
12520;DHT22;6325;49.540;8.364;2024-02-23T12:43:16;11.20;99.90
12520;DHT22;6325;49.540;8.364;2024-02-23T12:45:43;11.80;99.90
12520;DHT22;6325;49.540;8.364;2024-02-23T12:48:11;11.70;99.90
12520;DHT22;6325;49.540;8.364;2024-02-23T12:50:38;11.50;99.90
12520;DHT22;6325;49.540;8.364;2024-02-23T12:53:04;11.10;99.90
12520;DHT22;6325;49.540;8.364;2024-02-23T12:55:31;11.60;99.90
12520;DHT22;6325;49.540;8.364;2024-02-23T12:57:58;11.00;99.90
12520;DHT22;6325;49.540;8.364;2024-02-23T13:00:26;10.40;99.90
12520;DHT22;6325;49.540;8.364;2024-02-23T13:02:53;10.90;99.90
12520;DHT22;6325;49.540;8.364;2024-02-23T13:05:20;11.00;99.90
12520;DHT22;6325;49.540;8.364;2024-02-23T13:07:47;10.90;99.90
12520;DHT22;6325;49.540;8.364;2024-02-23T13:10:14;11.40;99.90
12520;DHT22;6325;49.540;8.364;2024-02-23T13:12:43;10.90;99.90
12520;DHT22;6325;49.540;8.364;2024-02-23T13:15:10;11.20;99.90
12520;DHT22;6325;49.540;8.364;2024-02-23T13:17:38;10.60;99.90
12520;DHT22;6325;49.540;8.364;2024-02-23T13:20:06;10.20;99.90
12520;DHT22;6325;49.540;8.364;2024-02-23T13:22:33;10.70;99.90
12520;DHT22;6325;49.540;8.364;2024-02-23T13:25:00;10.70;99.90
12520;DHT22;6325;49.540;8.364;2024-02-23T13:27:27;11.00;99.90
12520;DHT22;6325;49.540;8.364;2024-02-23T13:29:55;11.20;99.90
12520;DHT22;6325;49.540;8.364;2024-02-23T13:32:22;11.10;99.90
12520;DHT22;6325;49.540;8.364;2024-02-23T13:34:50;11.30;99.90
12520;DHT22;6325;49.540;8.364;2024-02-23T13:37:18;11.10;99.90
12520;DHT22;6325;49.540;8.364;2024-02-23T13:39:45;10.80;99.90
12520;DHT22;6325;49.540;8.364;2024-02-23T13:42:11;10.50;99.90
12520;DHT22;6325;49.540;8.364;2024-02-23T13:44:39;10.80;99.90
12520;DHT22;6325;49.540;8.364;2024-02-23T13:47:05;10.50;99.90
12520;DHT22;6325;49.540;8.364;2024-02-23T13:49:32;10.50;99.90
12520;DHT22;6325;49.540;8.364;2024-02-23T13:52:00;10.90;99.90
12520;DHT22;6325;49.540;8.364;2024-02-23T13:54:27;10.50;99.90
12520;DHT22;6325;49.540;8.364;2024-02-23T13:56:54;10.70;99.90
12520;DHT22;6325;49.540;8.364;2024-02-23T13:59:21;11.10;99.90
12520;DHT22;6325;49.540;8.364;2024-02-23T14:01:47;10.60;99.90
12520;DHT22;6325;49.540;8.364;2024-02-23T14:04:14;10.80;99.90
12520;DHT22;6325;49.540;8.364;2024-02-23T14:06:42;10.80;99.90
12520;DHT22;6325;49.540;8.364;2024-02-23T14:09:10;9.80;99.90
12520;DHT22;6325;49.540;8.364;2024-02-23T14:11:37;10.60;99.90
12520;DHT22;6325;49.540;8.364;2024-02-23T14:14:05;10.80;99.90
12520;DHT22;6325;49.540;8.364;2024-02-23T14:16:33;10.40;99.90
12520;DHT22;6325;49.540;8.364;2024-02-23T14:19:00;10.60;99.90
12520;DHT22;6325;49.540;8.364;2024-02-23T14:21:27;11.00;99.90
12520;DHT22;6325;49.540;8.364;2024-02-23T14:23:53;10.80;99.90
12520;DHT22;6325;49.540;8.364;2024-02-23T14:26:22;10.40;99.90
12520;DHT22;6325;49.540;8.364;2024-02-23T14:28:49;10.50;99.90
12520;DHT22;6325;49.540;8.364;2024-02-23T14:31:16;11.30;99.90
12520;DHT22;6325;49.540;8.364;2024-02-23T14:33:43;11.00;99.90
12520;DHT22;6325;49.540;8.364;2024-02-23T14:36:09;11.50;99.90
12520;DHT22;6325;49.540;8.364;2024-02-23T14:38:36;11.60;99.90
12520;DHT22;6325;49.540;8.364;2024-02-23T14:41:03;11.30;99.90
12520;DHT22;6325;49.540;8.364;2024-02-23T14:43:35;10.80;99.90
12520;DHT22;6325;49.540;8.364;2024-02-23T14:46:02;11.50;99.90
12520;DHT22;6325;49.540;8.364;2024-02-23T14:48:30;11.40;99.90
12520;DHT22;6325;49.540;8.364;2024-02-23T14:50:57;11.40;99.90
12520;DHT22;6325;49.540;8.364;2024-02-23T14:53:24;11.40;99.90
12520;DHT22;6325;49.540;8.364;2024-02-23T14:55:51;11.40;99.90
12520;DHT22;6325;49.540;8.364;2024-02-23T14:58:18;11.50;99.90
12520;DHT22;6325;49.540;8.364;2024-02-23T15:00:47;11.30;99.90
12520;DHT22;6325;49.540;8.364;2024-02-23T15:03:14;11.20;99.90
12520;DHT22;6325;49.540;8.364;2024-02-23T15:05:40;11.10;99.90
12520;DHT22;6325;49.540;8.364;2024-02-23T15:08:07;10.90;99.90
12520;DHT22;6325;49.540;8.364;2024-02-23T15:10:34;11.10;99.90
12520;DHT22;6325;49.540;8.364;2024-02-23T15:13:01;11.00;99.90
12520;DHT22;6325;49.540;8.364;2024-02-23T15:15:28;10.80;99.90
12520;DHT22;6325;49.540;8.364;2024-02-23T15:17:56;11.30;99.90
12520;DHT22;6325;49.540;8.364;2024-02-23T15:20:23;11.10;99.90
12520;DHT22;6325;49.540;8.364;2024-02-23T15:22:50;11.30;99.90
12520;DHT22;6325;49.540;8.364;2024-02-23T15:25:16;12.50;99.90
12520;DHT22;6325;49.540;8.364;2024-02-23T15:27:43;13.20;99.90
12520;DHT22;6325;49.540;8.364;2024-02-23T15:30:10;14.00;99.90
12520;DHT22;6325;49.540;8.364;2024-02-23T15:32:37;14.60;99.90
12520;DHT22;6325;49.540;8.364;2024-02-23T15:35:06;14.30;99.90
12520;DHT22;6325;49.540;8.364;2024-02-23T15:37:33;13.30;99.90
12520;DHT22;6325;49.540;8.364;2024-02-23T15:40:00;13.30;99.90
12520;DHT22;6325;49.540;8.364;2024-02-23T15:42:29;12.80;99.90
12520;DHT22;6325;49.540;8.364;2024-02-23T15:44:56;12.90;99.90
12520;DHT22;6325;49.540;8.364;2024-02-23T15:47:22;12.80;99.90
12520;DHT22;6325;49.540;8.364;2024-02-23T15:49:49;12.80;99.90
12520;DHT22;6325;49.540;8.364;2024-02-23T15:52:18;12.50;99.90
12520;DHT22;6325;49.540;8.364;2024-02-23T15:54:44;12.10;99.90
12520;DHT22;6325;49.540;8.364;2024-02-23T15:57:11;11.70;99.90
12520;DHT22;6325;49.540;8.364;2024-02-23T15:59:38;11.50;99.90